Time;durP1;ratioP1;P1;durP2;ratioP2;P2;SDS_P1;SDS_P2;PMS_P1;PMS_P2;Temp;Humidity;BMP_temperature;BMP_pressure;BME280_temperature;BME280_humidity;BME280_pressure;Samples;Min_cycle;Max_cycle;Signal;HPM_P1;HPM_P2
2023/07/04 00:01:12;;;;;;;;;;;;;;;14.58;60.62;100651.82;108103;1256;65739;-81
2023/07/04 00:03:39;;;;;;;;;;;;;;;14.54;60.81;100649.30;107744;1256;123824;-81
2023/07/04 00:06:07;;;;;;;;;;;;;;;14.51;60.95;100645.73;107597;1257;59186;-81
2023/07/04 00:08:34;;;;;;;;;;;;;;;14.49;61.08;100641.31;107769;1256;59253;-86
2023/07/04 00:11:02;;;;;;;;;;;;;;;14.47;61.12;100643.41;107648;1256;123914;-85
2023/07/04 00:13:30;;;;;;;;;;;;;;;14.46;61.31;100644.46;107765;1256;65778;-85
2023/07/04 00:15:57;;;;;;;;;;;;;;;14.44;61.47;100643.39;107755;1257;123783;-85
2023/07/04 00:18:25;;;;;;;;;;;;;;;14.42;61.58;100640.91;107779;1256;59670;-85
2023/07/04 00:20:54;;;;;;;;;;;;;;;14.38;61.58;100643.17;107585;1256;60040;-85
2023/07/04 00:23:26;;;;;;;;;;;;;;;14.33;61.72;100644.36;107876;1255;124040;-84
2023/07/04 00:25:53;;;;;;;;;;;;;;;14.26;61.89;100645.38;107467;1256;67836;-84
2023/07/04 00:28:22;;;;;;;;;;;;;;;14.20;62.03;100646.38;107144;1255;123568;-84
2023/07/04 00:30:52;;;;;;;;;;;;;;;14.17;62.37;100647.41;107530;1256;59211;-80
2023/07/04 00:33:20;;;;;;;;;;;;;;;14.16;62.52;100650.77;107521;1255;124081;-80
2023/07/04 00:35:47;;;;;;;;;;;;;;;14.18;62.67;100653.58;108131;1256;71779;-80
2023/07/04 00:38:15;;;;;;;;;;;;;;;14.21;62.77;100659.45;107834;1256;67124;-80
2023/07/04 00:40:43;;;;;;;;;;;;;;;14.25;62.90;100658.41;107957;1254;123998;-80
2023/07/04 00:43:12;;;;;;;;;;;;;;;14.28;63.06;100666.56;107844;1259;57958;-80
2023/07/04 00:45:42;;;;;;;;;;;;;;;14.33;63.02;100665.38;107666;1256;123673;-79
2023/07/04 00:48:11;;;;;;;;;;;;;;;14.36;63.03;100668.93;107638;1255;71475;-82
2023/07/04 00:50:39;;;;;;;;;;;;;;;14.38;62.99;100663.30;107934;1257;65789;-84
2023/07/04 00:53:08;;;;;;;;;;;;;;;14.40;63.04;100667.73;107516;1254;123663;-84
2023/07/04 00:55:40;;;;;;;;;;;;;;;14.40;63.16;100664.54;108111;1254;57646;-80
2023/07/04 00:58:07;;;;;;;;;;;;;;;14.42;63.10;100667.05;108091;1257;123562;-80
2023/07/04 01:00:37;;;;;;;;;;;;;;;14.43;63.17;100673.92;108207;1256;73114;-84
2023/07/04 01:03:09;;;;;;;;;;;;;;;14.45;63.17;100669.17;108244;1254;123580;-80
2023/07/04 01:05:51;;;;;;;;;;;;;;;14.48;63.24;100665.31;108100;1254;72466;-81
2023/07/04 01:08:26;;;;;;;;;;;;;;;14.50;63.23;100668.69;108189;1254;58327;-80
2023/07/04 01:10:53;;;;;;;;;;;;;;;14.50;63.26;100665.50;107797;1254;124516;-80
2023/07/04 01:13:33;;;;;;;;;;;;;;;14.52;63.26;100672.23;107997;1254;71741;-80
2023/07/04 01:16:01;;;;;;;;;;;;;;;14.54;63.25;100665.54;108033;1254;124088;-80
2023/07/04 01:18:28;;;;;;;;;;;;;;;14.56;63.27;100669.63;108310;1255;71180;-80
2023/07/04 01:20:55;;;;;;;;;;;;;;;14.58;63.19;100667.02;108340;1257;57800;-80
2023/07/04 01:23:37;;;;;;;;;;;;;;;14.61;63.16;100664.73;108269;1256;124131;-80
2023/07/04 01:26:24;;;;;;;;;;;;;;;14.62;63.08;100666.86;108183;1255;72162;-80
2023/07/04 01:28:53;;;;;;;;;;;;;;;14.64;62.99;100665.98;107917;1257;124567;-80
2023/07/04 01:31:25;;;;;;;;;;;;;;;14.65;63.05;100665.11;108182;1254;72767;-80
2023/07/04 01:33:52;;;;;;;;;;;;;;;14.66;62.97;100661.77;108039;1255;124360;-80
2023/07/04 01:36:22;;;;;;;;;;;;;;;14.67;62.97;100660.73;107952;1255;59397;-80
2023/07/04 01:38:49;;;;;;;;;;;;;;;14.69;62.98;100663.20;107905;1254;73097;-80
2023/07/04 01:41:16;;;;;;;;;;;;;;;14.70;62.99;100664.45;107952;1257;123700;-80
2023/07/04 01:43:46;;;;;;;;;;;;;;;14.72;62.94;100663.76;108930;1254;70650;-80
2023/07/04 01:46:13;;;;;;;;;;;;;;;14.74;63.02;100665.89;108862;1254;123622;-80
2023/07/04 01:48:41;;;;;;;;;;;;;;;14.74;62.84;100665.71;108997;1254;59098;-80
2023/07/04 01:51:08;;;;;;;;;;;;;;;14.75;62.93;100664.66;108985;1254;124094;-80
2023/07/04 01:53:35;;;;;;;;;;;;;;;14.77;62.92;100663.79;109045;1256;66294;-80
2023/07/04 01:56:02;;;;;;;;;;;;;;;14.78;62.92;100662.92;108999;1256;71373;-81
2023/07/04 01:58:29;;;;;;;;;;;;;;;14.79;62.73;100664.16;108814;1256;123693;-80
2023/07/04 02:00:56;;;;;;;;;;;;;;;14.80;62.91;100661.34;108979;1254;60596;-80
2023/07/04 02:03:23;;;;;;;;;;;;;;;14.80;62.84;100662.05;109071;1254;124017;-80
2023/07/04 02:05:49;;;;;;;;;;;;;;;14.81;62.80;100659.39;109124;1254;67593;-80
2023/07/04 02:08:16;;;;;;;;;;;;;;;14.81;62.75;100659.23;109047;1254;70407;-80
2023/07/04 02:10:43;;;;;;;;;;;;;;;14.82;62.75;100658.87;109044;1254;123628;-82
2023/07/04 02:13:10;;;;;;;;;;;;;;;14.83;62.70;100660.46;109133;1254;60128;-79
2023/07/04 02:15:37;;;;;;;;;;;;;;;14.84;62.79;100662.95;108479;1254;124350;-79
2023/07/04 02:18:04;;;;;;;;;;;;;;;14.85;62.67;100666.84;108082;1254;64659;-79
2023/07/04 02:20:31;;;;;;;;;;;;;;;14.86;62.78;100667.91;108031;1254;70826;-82
2023/07/04 02:22:58;;;;;;;;;;;;;;;14.86;62.83;100665.42;107875;1259;124292;-80
2023/07/04 02:25:25;;;;;;;;;;;;;;;14.85;62.66;100664.02;108058;1254;60146;-83
2023/07/04 02:27:52;;;;;;;;;;;;;;;14.87;62.67;100666.14;107910;1254;124244;-86
2023/07/04 02:30:21;;;;;;;;;;;;;;;14.87;62.70;100665.61;108259;1254;65889;-84
2023/07/04 02:32:49;;;;;;;;;;;;;;;14.89;62.59;100658.91;107762;1257;73062;-85
2023/07/04 02:35:16;;;;;;;;;;;;;;;14.91;62.66;100659.98;107856;1257;123725;-84
2023/07/04 02:37:43;;;;;;;;;;;;;;;14.94;62.53;100659.11;107866;1255;61559;-85
2023/07/04 02:40:10;;;;;;;;;;;;;;;14.94;62.52;100658.23;107904;1254;124106;-84
2023/07/04 02:42:37;;;;;;;;;;;;;;;14.95;62.58;100654.17;108132;1254;67269;-85
2023/07/04 02:45:06;;;;;;;;;;;;;;;14.96;62.50;100655.42;108382;1254;124558;-84
2023/07/04 02:47:33;;;;;;;;;;;;;;;14.97;62.43;100649.41;108373;1254;58794;-84
2023/07/04 02:50:00;;;;;;;;;;;;;;;14.99;62.47;100651.73;108473;1254;58932;-84
2023/07/04 02:52:27;;;;;;;;;;;;;;;15.01;62.38;100650.67;108115;1255;124663;-84
2023/07/04 02:54:54;;;;;;;;;;;;;;;15.02;62.45;100654.58;108037;1254;67319;-84
2023/07/04 02:57:22;;;;;;;;;;;;;;;15.02;62.37;100654.92;107866;1255;123885;-84
2023/07/04 02:59:49;;;;;;;;;;;;;;;15.03;62.33;100648.91;107825;1254;58433;-84
2023/07/04 03:02:17;;;;;;;;;;;;;;;15.05;62.36;100648.91;107977;1257;60202;-84
2023/07/04 03:04:47;;;;;;;;;;;;;;;15.06;62.36;100648.23;108400;1259;124200;-84
2023/07/04 03:07:14;;;;;;;;;;;;;;;15.09;62.36;100649.83;108283;1254;65531;-84
2023/07/04 03:09:41;;;;;;;;;;;;;;;15.11;62.32;100651.27;107943;1257;123890;-84
2023/07/04 03:12:08;;;;;;;;;;;;;;;15.12;62.31;100648.08;107899;1256;60352;-84
2023/07/04 03:14:35;;;;;;;;;;;;;;;15.15;62.27;100642.44;107768;1256;60689;-84
2023/07/04 03:17:02;;;;;;;;;;;;;;;15.18;62.14;100636.98;107630;1257;123864;-84
2023/07/04 03:19:29;;;;;;;;;;;;;;;15.21;62.14;100634.16;108164;1254;67441;-84
2023/07/04 03:21:56;;;;;;;;;;;;;;;15.25;62.05;100629.05;108145;1256;123760;-84
2023/07/04 03:24:23;;;;;;;;;;;;;;;15.28;62.00;100635.42;107934;1254;59239;-84
2023/07/04 03:26:52;;;;;;;;;;;;;;;15.31;61.88;100634.90;107937;1254;60201;-84
2023/07/04 03:29:19;;;;;;;;;;;;;;;15.32;61.81;100630.14;107708;1259;124350;-84
2023/07/04 03:31:47;;;;;;;;;;;;;;;15.34;61.84;100630.13;107937;1254;67567;-84
2023/07/04 03:34:14;;;;;;;;;;;;;;;15.36;61.72;100629.80;107789;1254;125011;-84
2023/07/04 03:36:42;;;;;;;;;;;;;;;15.41;61.78;100627.69;107908;1256;58697;-86
2023/07/04 03:39:09;;;;;;;;;;;;;;;15.47;61.70;100624.34;107826;1254;124207;-83
2023/07/04 03:41:36;;;;;;;;;;;;;;;15.54;61.60;100619.41;108035;1254;72504;-86
2023/07/04 03:44:03;;;;;;;;;;;;;;;15.61;61.61;100618.19;108045;1254;65710;-84
2023/07/04 03:46:30;;;;;;;;;;;;;;;15.67;61.52;100610.06;107969;1254;124501;-84
2023/07/04 03:48:57;;;;;;;;;;;;;;;15.71;61.42;100604.42;107967;1259;60265;-84
2023/07/04 03:51:26;;;;;;;;;;;;;;;15.76;61.34;100599.84;107894;1258;124682;-84
2023/07/04 03:53:53;;;;;;;;;;;;;;;15.81;61.27;100592.80;108154;1254;73943;-85
2023/07/04 03:56:21;;;;;;;;;;;;;;;15.87;61.20;100592.97;108128;1254;65835;-85
2023/07/04 03:58:48;;;;;;;;;;;;;;;15.94;61.00;100603.40;108019;1254;124483;-85
2023/07/04 04:01:24;;;;;;;;;;;;;;;15.99;60.92;100610.13;108417;1258;58655;-85
2023/07/04 04:03:53;;;;;;;;;;;;;;;16.05;60.90;100602.16;108077;1255;124246;-85
2023/07/04 04:06:22;;;;;;;;;;;;;;;16.46;60.99;100606.92;107862;1254;72250;-84
2023/07/04 04:08:50;;;;;;;;;;;;;;;17.00;61.44;100601.30;107836;1256;65668;-84
2023/07/04 04:11:17;;;;;;;;;;;;;;;18.75;61.90;100594.53;107629;1255;123821;-85
2023/07/04 04:13:44;;;;;;;;;;;;;;;20.63;60.25;100588.92;107747;1255;60435;-85
2023/07/04 04:16:11;;;;;;;;;;;;;;;22.38;58.42;100585.38;107976;1254;124406;-85
2023/07/04 04:18:38;;;;;;;;;;;;;;;24.04;56.20;100582.64;108117;1254;74947;-81
2023/07/04 04:21:05;;;;;;;;;;;;;;;25.39;53.60;100573.86;108135;1259;124551;-80
2023/07/04 04:23:31;;;;;;;;;;;;;;;26.68;51.75;100569.59;108195;1254;72692;-80
2023/07/04 04:26:00;;;;;;;;;;;;;;;27.98;49.76;100571.59;108100;1254;59740;-80
2023/07/04 04:28:27;;;;;;;;;;;;;;;29.07;47.88;100575.52;107988;1254;123886;-80
2023/07/04 04:30:53;;;;;;;;;;;;;;;29.76;45.67;100577.48;108167;1255;73733;-81
2023/07/04 04:33:20;;;;;;;;;;;;;;;29.68;43.81;100571.39;107857;1254;124040;-80
2023/07/04 04:35:47;;;;;;;;;;;;;;;28.65;42.43;100571.40;107939;1254;71641;-80
2023/07/04 04:38:14;;;;;;;;;;;;;;;27.35;42.17;100570.11;108056;1257;58959;-85
2023/07/04 04:40:42;;;;;;;;;;;;;;;26.24;42.64;100567.40;108830;1254;123734;-84
2023/07/04 04:43:11;;;;;;;;;;;;;;;25.37;42.94;100568.93;109094;1256;72648;-85
2023/07/04 04:45:38;;;;;;;;;;;;;;;24.72;43.50;100566.88;107904;1256;124274;-80
2023/07/04 04:48:06;;;;;;;;;;;;;;;24.46;44.11;100569.05;107958;1254;71080;-84
2023/07/04 04:50:33;;;;;;;;;;;;;;;24.40;44.02;100567.13;108950;1254;58697;-80
2023/07/04 04:53:00;;;;;;;;;;;;;;;24.01;44.11;100572.23;108933;1254;124609;-79
2023/07/04 04:55:27;;;;;;;;;;;;;;;23.43;44.13;100570.63;108993;1254;73860;-79
2023/07/04 04:57:54;;;;;;;;;;;;;;;22.80;44.57;100578.89;108809;1256;123778;-81
2023/07/04 05:00:23;;;;;;;;;;;;;;;22.35;45.07;100576.02;108650;1254;71384;-81
2023/07/04 05:02:50;;;;;;;;;;;;;;;21.95;45.48;100572.20;107926;1257;61868;-81
2023/07/04 05:05:17;;;;;;;;;;;;;;;21.64;45.95;100570.80;107765;1257;123949;-80
2023/07/04 05:07:44;;;;;;;;;;;;;;;21.38;46.28;100570.13;107619;1257;73910;-82
2023/07/04 05:10:11;;;;;;;;;;;;;;;21.12;46.58;100571.42;107549;1254;123955;-81
2023/07/04 05:12:39;;;;;;;;;;;;;;;20.86;46.95;100566.41;107705;1257;72710;-82
2023/07/04 05:15:06;;;;;;;;;;;;;;;20.66;47.39;100565.39;107647;1254;124272;-81
2023/07/04 05:17:33;;;;;;;;;;;;;;;20.56;47.82;100569.65;107887;1256;59872;-82
2023/07/04 05:20:01;;;;;;;;;;;;;;;20.43;48.07;100573.09;107840;1254;74372;-82
2023/07/04 05:22:28;;;;;;;;;;;;;;;20.33;48.39;100578.09;107955;1254;123761;-82
2023/07/04 05:24:57;;;;;;;;;;;;;;;20.24;48.66;100574.16;107829;1254;72635;-83
2023/07/04 05:27:24;;;;;;;;;;;;;;;20.12;48.87;100570.27;107483;1258;124038;-82
2023/07/04 05:29:53;;;;;;;;;;;;;;;20.04;49.13;100568.63;107599;1254;59529;-81
2023/07/04 05:32:23;;;;;;;;;;;;;;;20.10;49.40;100576.36;107923;1254;72240;-81
2023/07/04 05:34:50;;;;;;;;;;;;;;;20.27;49.49;100575.70;107735;1254;124067;-81
2023/07/04 05:37:17;;;;;;;;;;;;;;;20.44;49.38;100575.75;107746;1257;74124;-81
2023/07/04 05:39:44;;;;;;;;;;;;;;;20.62;49.25;100570.98;107775;1259;123870;-81
2023/07/04 05:42:12;;;;;;;;;;;;;;;20.88;49.36;100566.91;107889;1257;60370;-81
2023/07/04 05:44:40;;;;;;;;;;;;;;;21.72;49.39;100560.59;107921;1257;74439;-81
2023/07/04 05:47:07;;;;;;;;;;;;;;;22.30;48.18;100560.80;107937;1254;123915;-83
2023/07/04 05:49:34;;;;;;;;;;;;;;;22.46;47.39;100562.52;108125;1259;71852;-81
2023/07/04 05:52:08;;;;;;;;;;;;;;;22.45;47.06;100563.26;107992;1255;124320;-81
2023/07/04 05:54:35;;;;;;;;;;;;;;;22.48;47.00;100562.81;108229;1256;60216;-81
2023/07/04 05:57:02;;;;;;;;;;;;;;;22.59;46.71;100564.48;108050;1254;124694;-80
2023/07/04 05:59:30;;;;;;;;;;;;;;;22.76;46.40;100562.58;108314;1254;66953;-82
2023/07/04 06:01:59;;;;;;;;;;;;;;;22.94;45.96;100557.77;107735;1256;73561;-87
2023/07/04 06:04:26;;;;;;;;;;;;;;;23.15;45.62;100557.52;107421;1260;123713;-87
2023/07/04 06:06:53;;;;;;;;;;;;;;;23.48;45.57;100557.23;107628;1259;60312;-87
2023/07/04 06:09:20;;;;;;;;;;;;;;;23.89;45.24;100556.67;107661;1257;124013;-87
2023/07/04 06:11:49;;;;;;;;;;;;;;;24.15;44.79;100559.19;107699;1257;67418;-86
2023/07/04 06:14:28;;;;;;;;;;;;;;;24.19;44.13;100560.14;107454;1255;72299;-86
2023/07/04 06:17:17;;;;;;;;;;;;;;;24.09;43.78;100559.42;107494;1257;123675;-87
2023/07/04 06:19:47;;;;;;;;;;;;;;;23.99;43.53;100555.08;107595;1255;59369;-87
2023/07/04 06:22:20;;;;;;;;;;;;;;;23.96;43.57;100555.37;107601;1257;124503;-86
2023/07/04 06:24:50;;;;;;;;;;;;;;;23.99;43.59;100557.58;109076;1257;66005;-83
2023/07/04 06:27:17;;;;;;;;;;;;;;;24.08;43.51;100552.24;108916;1257;124418;-82
2023/07/04 06:29:46;;;;;;;;;;;;;;;24.24;43.29;100550.27;109078;1254;58240;-83
2023/07/04 06:32:13;;;;;;;;;;;;;;;24.35;43.23;100546.48;109083;1257;58503;-83
2023/07/04 06:34:40;;;;;;;;;;;;;;;24.43;43.10;100537.40;108941;1254;123858;-82
2023/07/04 06:37:07;;;;;;;;;;;;;;;24.55;42.85;100534.84;108958;1255;67109;-82
2023/07/04 06:39:34;;;;;;;;;;;;;;;24.66;42.75;100532.65;108956;1256;123962;-82
2023/07/04 06:42:04;;;;;;;;;;;;;;;24.78;42.55;100535.81;109076;1257;58580;-83
2023/07/04 06:44:51;;;;;;;;;;;;;;;24.95;42.39;100529.05;108093;1257;59183;-82
2023/07/04 06:47:21;;;;;;;;;;;;;;;25.22;42.19;100527.51;107573;1254;123939;-81
2023/07/04 06:49:48;;;;;;;;;;;;;;;25.47;41.99;100522.55;108152;1258;65725;-82
2023/07/04 06:52:15;;;;;;;;;;;;;;;25.61;41.47;100518.23;107917;1254;124483;-82
2023/07/04 06:54:43;;;;;;;;;;;;;;;25.77;41.28;100515.06;107725;1256;59687;-83
2023/07/04 06:57:22;;;;;;;;;;;;;;;25.94;41.02;100515.98;107721;1254;124342;-85
2023/07/04 06:59:49;;;;;;;;;;;;;;;26.01;40.70;100514.25;107973;1254;73577;-82
2023/07/04 07:02:17;;;;;;;;;;;;;;;26.03;40.47;100514.16;108042;1256;66856;-80
2023/07/04 07:04:47;;;;;;;;;;;;;;;26.10;40.26;100512.06;107929;1254;123782;-83
2023/07/04 07:07:20;;;;;;;;;;;;;;;26.22;40.15;100512.43;108216;1254;58839;-80
2023/07/04 07:09:47;;;;;;;;;;;;;;;26.23;39.81;100511.31;108001;1257;124964;-80
2023/07/04 07:12:14;;;;;;;;;;;;;;;26.10;39.61;100510.08;108014;1256;72557;-80
2023/07/04 07:14:41;;;;;;;;;;;;;;;26.00;39.72;100511.58;108216;1259;66308;-80
2023/07/04 07:17:08;;;;;;;;;;;;;;;25.95;39.65;100512.90;107612;1262;124319;-81
2023/07/04 07:19:35;;;;;;;;;;;;;;;25.86;39.46;100511.44;107921;1255;58609;-81
2023/07/04 07:22:02;;;;;;;;;;;;;;;25.78;39.33;100507.46;107909;1254;124467;-81
2023/07/04 07:24:30;;;;;;;;;;;;;;;25.74;39.44;100504.39;108251;1254;72240;-83
2023/07/04 07:26:57;;;;;;;;;;;;;;;25.60;39.39;100509.64;107924;1254;67032;-80
2023/07/04 07:29:24;;;;;;;;;;;;;;;25.45;39.46;100506.86;107795;1258;124351;-83
2023/07/04 07:31:52;;;;;;;;;;;;;;;25.52;39.75;100500.28;107969;1254;60495;-79
2023/07/04 07:34:19;;;;;;;;;;;;;;;25.69;39.60;100502.98;107979;1256;123834;-81
2023/07/04 07:36:46;;;;;;;;;;;;;;;25.66;39.08;100502.92;108632;1259;72544;-81
2023/07/04 07:39:14;;;;;;;;;;;;;;;25.42;38.95;100502.83;107846;1258;124284;-82
2023/07/04 07:41:45;;;;;;;;;;;;;;;25.30;39.07;100506.01;107618;1254;70448;-80
2023/07/04 07:44:13;;;;;;;;;;;;;;;25.38;39.27;100504.63;107847;1254;60414;-80
2023/07/04 07:46:40;;;;;;;;;;;;;;;25.57;39.28;100502.24;108284;1254;123871;-80
2023/07/04 07:49:07;;;;;;;;;;;;;;;25.68;38.84;100501.20;108049;1260;75078;-80
2023/07/04 07:51:35;;;;;;;;;;;;;;;25.64;38.71;100502.81;107699;1260;124135;-81
2023/07/04 07:54:02;;;;;;;;;;;;;;;25.53;38.69;100509.21;107687;1259;72175;-81
2023/07/04 07:56:42;;;;;;;;;;;;;;;25.50;38.61;100507.71;107986;1260;60092;-81
2023/07/04 07:59:10;;;;;;;;;;;;;;;25.48;38.43;100508.52;107841;1254;123854;-81
2023/07/04 08:01:37;;;;;;;;;;;;;;;25.38;38.42;100516.81;108039;1254;72353;-81
2023/07/04 08:04:05;;;;;;;;;;;;;;;25.34;38.57;100508.90;107844;1254;124582;-81
2023/07/04 08:06:39;;;;;;;;;;;;;;;25.32;38.46;100509.90;107762;1260;72400;-79
2023/07/04 08:09:06;;;;;;;;;;;;;;;25.27;38.40;100510.10;107670;1253;123874;-81
2023/07/04 08:11:34;;;;;;;;;;;;;;;25.38;38.38;100519.33;107947;1254;60402;-81
2023/07/04 08:14:01;;;;;;;;;;;;;;;25.56;38.23;100513.05;108009;1254;73147;-79
2023/07/04 08:16:29;;;;;;;;;;;;;;;25.63;37.85;100510.23;107760;1254;126064;-80
2023/07/04 08:18:57;;;;;;;;;;;;;;;25.59;37.82;100516.15;107910;1254;71424;-81
2023/07/04 08:21:24;;;;;;;;;;;;;;;25.48;37.75;100517.86;108143;1258;124519;-82
2023/07/04 08:23:51;;;;;;;;;;;;;;;25.30;37.78;100519.46;108342;1254;59833;-82
2023/07/04 08:26:20;;;;;;;;;;;;;;;25.10;37.78;100519.50;108324;1254;73695;-80
2023/07/04 08:28:47;;;;;;;;;;;;;;;24.93;38.02;100520.54;108150;1254;123879;-83
2023/07/04 08:31:17;;;;;;;;;;;;;;;24.80;38.25;100523.15;108164;1254;71333;-82
2023/07/04 08:33:45;;;;;;;;;;;;;;;24.67;38.17;100525.10;107936;1258;124715;-82
2023/07/04 08:36:12;;;;;;;;;;;;;;;24.54;38.44;100527.33;108009;1254;59583;-82
2023/07/04 08:38:39;;;;;;;;;;;;;;;24.52;38.86;100532.64;107971;1254;73549;-80
2023/07/04 08:41:18;;;;;;;;;;;;;;;24.55;38.77;100534.52;108223;1253;123909;-78
2023/07/04 08:43:56;;;;;;;;;;;;;;;24.60;38.89;100529.45;108326;1255;71372;-80
2023/07/04 08:46:23;;;;;;;;;;;;;;;24.67;38.99;100531.21;107822;1254;123938;-80
2023/07/04 08:48:50;;;;;;;;;;;;;;;24.66;39.12;100523.53;108063;1254;58798;-81
2023/07/04 08:51:27;;;;;;;;;;;;;;;24.71;39.02;100526.74;107971;1254;124067;-81
2023/07/04 08:53:56;;;;;;;;;;;;;;;24.80;38.77;100524.61;107954;1254;66797;-81
2023/07/04 08:56:31;;;;;;;;;;;;;;;24.81;38.83;100534.44;108044;1254;72666;-81
2023/07/04 08:59:21;;;;;;;;;;;;;;;24.89;38.88;100533.60;108052;1254;124506;-81
2023/07/04 09:02:07;;;;;;;;;;;;;;;25.16;38.93;100536.54;108020;1254;60383;-81
2023/07/04 09:04:37;;;;;;;;;;;;;;;25.47;38.68;100532.30;107841;1254;123748;-80
2023/07/04 09:07:17;;;;;;;;;;;;;;;25.70;38.24;100533.65;108078;1254;67069;-81
2023/07/04 09:09:50;;;;;;;;;;;;;;;25.91;37.88;100537.66;108130;1254;124150;-80
2023/07/04 09:12:17;;;;;;;;;;;;;;;26.02;37.83;100534.33;108044;1254;58930;-81
2023/07/04 09:14:56;;;;;;;;;;;;;;;26.14;37.68;100529.00;107480;1254;61407;-86
2023/07/04 09:17:31;;;;;;;;;;;;;;;26.27;37.48;100533.29;107425;1254;124229;-86
2023/07/04 09:20:08;;;;;;;;;;;;;;;26.17;37.28;100541.45;107634;1254;66955;-84
2023/07/04 09:22:35;;;;;;;;;;;;;;;26.07;37.28;100545.83;107849;1257;123723;-85
2023/07/04 09:25:03;;;;;;;;;;;;;;;25.85;37.18;100554.45;107957;1254;59745;-86
2023/07/04 09:27:32;;;;;;;;;;;;;;;25.61;37.32;100554.70;107575;1257;123937;-86
2023/07/04 09:30:05;;;;;;;;;;;;;;;25.56;37.25;100557.80;108123;1254;73915;-87
2023/07/04 09:32:34;;;;;;;;;;;;;;;25.71;37.11;100556.27;107910;1254;67033;-87
2023/07/04 09:35:02;;;;;;;;;;;;;;;25.83;36.80;100559.91;107686;1254;124033;-86
2023/07/04 09:37:30;;;;;;;;;;;;;;;25.82;36.77;100566.80;107874;1254;58531;-86
2023/07/04 09:39:58;;;;;;;;;;;;;;;25.67;36.56;100571.34;108093;1254;123818;-87
2023/07/04 09:42:40;;;;;;;;;;;;;;;25.48;36.70;100575.70;107952;1254;73674;-86
2023/07/04 09:45:11;;;;;;;;;;;;;;;25.18;36.76;100585.83;108105;1254;124394;-86
2023/07/04 09:47:41;;;;;;;;;;;;;;;24.89;37.01;100589.95;107831;1254;73140;-86
2023/07/04 09:50:09;;;;;;;;;;;;;;;24.65;37.17;100597.11;107703;1255;60176;-88
2023/07/04 09:52:42;;;;;;;;;;;;;;;24.51;37.38;100602.99;107550;1256;123754;-87
2023/07/04 09:55:13;;;;;;;;;;;;;;;24.39;37.58;100608.77;107775;1254;73933;-82
2023/07/04 09:57:40;;;;;;;;;;;;;;;24.26;37.59;100609.38;107822;1257;124029;-82
2023/07/04 10:00:15;;;;;;;;;;;;;;;24.15;37.86;100612.81;108146;1254;71319;-82
2023/07/04 10:02:43;;;;;;;;;;;;;;;24.15;38.05;100609.77;108859;1254;59018;-84
2023/07/04 10:05:10;;;;;;;;;;;;;;;24.19;38.06;100610.16;108949;1254;123874;-80
2023/07/04 10:07:37;;;;;;;;;;;;;;;24.31;38.00;100613.86;108991;1254;74372;-81
2023/07/04 10:10:05;;;;;;;;;;;;;;;24.56;37.96;100615.01;108982;1254;124792;-81
2023/07/04 10:12:40;;;;;;;;;;;;;;;24.80;37.79;100613.08;108999;1254;72722;-81
2023/07/04 10:15:07;;;;;;;;;;;;;;;25.10;37.83;100617.38;109014;1254;124864;-81
2023/07/04 10:17:39;;;;;;;;;;;;;;;25.31;37.50;100622.71;109197;1254;58579;-81
2023/07/04 10:20:12;;;;;;;;;;;;;;;25.52;37.33;100627.65;108612;1254;72560;-83
2023/07/04 10:22:45;;;;;;;;;;;;;;;25.75;37.15;100627.27;107596;1254;124757;-83
2023/07/04 10:25:14;;;;;;;;;;;;;;;25.92;36.83;100634.37;108168;1254;71042;-81
2023/07/04 10:27:42;;;;;;;;;;;;;;;26.00;36.94;100642.34;108036;1259;125572;-80
2023/07/04 10:30:11;;;;;;;;;;;;;;;26.06;36.49;100635.08;108332;1254;59810;-81
2023/07/04 10:32:39;;;;;;;;;;;;;;;26.08;36.44;100642.91;108414;1257;74099;-81
2023/07/04 10:35:08;;;;;;;;;;;;;;;26.05;36.46;100647.52;108205;1254;124717;-81
2023/07/04 10:37:36;;;;;;;;;;;;;;;25.95;36.26;100654.74;108179;1254;72768;-81
2023/07/04 10:40:05;;;;;;;;;;;;;;;25.95;36.15;100662.29;107908;1254;124051;-81
2023/07/04 10:42:52;;;;;;;;;;;;;;;26.05;36.09;100662.07;107849;1257;59039;-81
2023/07/04 10:45:21;;;;;;;;;;;;;;;26.12;35.88;100660.15;107512;1257;124607;-85
2023/07/04 10:47:52;;;;;;;;;;;;;;;26.10;35.91;100662.05;107683;1257;65382;-85
2023/07/04 10:50:24;;;;;;;;;;;;;;;25.97;35.60;100663.84;107699;1257;256371;-85
2023/07/04 10:52:58;;;;;;;;;;;;;;;25.81;35.80;100661.20;107695;1257;124395;-85
2023/07/04 10:55:54;;;;;;;;;;;;;;;25.73;36.05;100660.45;107272;1261;59213;-85
2023/07/04 10:58:29;;;;;;;;;;;;;;;25.78;36.22;100663.27;107014;1257;124354;-84
2023/07/04 11:01:17;;;;;;;;;;;;;;;25.90;36.20;100665.53;107369;1258;65968;-84
2023/07/04 11:03:56;;;;;;;;;;;;;;;26.01;35.89;100667.45;107338;1257;124806;-85
2023/07/04 11:06:34;;;;;;;;;;;;;;;26.16;35.99;100673.13;107418;1257;59584;-84
2023/07/04 11:09:09;;;;;;;;;;;;;;;26.36;35.81;100671.94;107495;1257;60454;-85
2023/07/04 11:11:36;;;;;;;;;;;;;;;26.53;35.62;100676.42;107528;1257;73674;-85
2023/07/04 11:14:06;;;;;;;;;;;;;;;26.66;35.42;100680.77;107543;1254;65413;-84
2023/07/04 11:16:33;;;;;;;;;;;;;;;26.69;35.20;100685.17;107361;1258;123978;-85
2023/07/04 11:19:21;;;;;;;;;;;;;;;26.67;35.05;100685.44;107497;1253;58563;-84
2023/07/04 11:21:55;;;;;;;;;;;;;;;26.56;35.07;100694.32;107624;1253;124022;-80
2023/07/04 11:24:22;;;;;;;;;;;;;;;26.38;34.97;100696.13;107871;1254;73716;-80
2023/07/04 11:26:50;;;;;;;;;;;;;;;26.17;35.05;100700.95;108075;1254;65932;-80
2023/07/04 11:29:18;;;;;;;;;;;;;;;26.09;35.38;100697.36;107954;1253;124852;-83
2023/07/04 11:32:14;;;;;;;;;;;;;;;26.04;35.03;100695.75;107636;1253;60934;-82
2023/07/04 11:34:43;;;;;;;;;;;;;;;25.96;34.82;100695.32;107599;1254;125215;-82
2023/07/04 11:37:15;;;;;;;;;;;;;;;25.87;34.79;100699.99;107756;1254;71346;-82
2023/07/04 11:39:41;;;;;;;;;;;;;;;25.74;34.63;100699.20;107667;1254;124114;-82
2023/07/04 11:42:16;;;;;;;;;;;;;;;25.62;34.83;100702.56;107864;1254;72261;-80
2023/07/04 11:45:05;;;;;;;;;;;;;;;25.48;34.92;100707.41;107931;1254;59165;-84
2023/07/04 11:47:46;;;;;;;;;;;;;;;25.52;35.21;100707.60;108193;1254;59263;-80
2023/07/04 11:50:18;;;;;;;;;;;;;;;25.64;35.15;100705.53;108039;1254;72542;-84
2023/07/04 11:52:50;;;;;;;;;;;;;;;25.74;35.22;100709.45;108712;1253;123778;-84
2023/07/04 11:55:17;;;;;;;;;;;;;;;25.75;34.89;100713.55;107743;1253;71388;-84
2023/07/04 11:58:03;;;;;;;;;;;;;;;25.62;34.97;100709.05;108335;1254;60446;-84
2023/07/04 12:00:30;;;;;;;;;;;;;;;25.38;34.97;100716.02;107928;1257;60019;-80
2023/07/04 12:02:57;;;;;;;;;;;;;;;25.11;35.06;100717.88;108269;1254;72584;-80
2023/07/04 12:05:28;;;;;;;;;;;;;;;24.93;35.23;100719.77;108049;1254;124006;-81
2023/07/04 12:07:59;;;;;;;;;;;;;;;24.96;35.48;100722.35;108150;1253;72663;-81
2023/07/04 12:10:27;;;;;;;;;;;;;;;25.11;35.37;100720.01;107901;1254;123827;-80
2023/07/04 12:12:58;;;;;;;;;;;;;;;25.25;35.43;100720.27;107592;1254;59774;-81
2023/07/04 12:15:29;;;;;;;;;;;;;;;25.39;35.39;100715.45;108979;1254;124475;-81
2023/07/04 12:17:59;;;;;;;;;;;;;;;25.51;35.52;100715.92;108962;1254;66340;-80
2023/07/04 12:20:28;;;;;;;;;;;;;;;25.69;35.65;100711.47;108994;1254;71516;-80
2023/07/04 12:23:00;;;;;;;;;;;;;;;25.93;35.53;100709.66;108991;1254;124172;-80
2023/07/04 12:25:28;;;;;;;;;;;;;;;26.03;35.20;100703.52;109018;1254;61214;-80
2023/07/04 12:27:56;;;;;;;;;;;;;;;26.11;35.07;100701.41;108901;1254;124734;-81
2023/07/04 12:30:23;;;;;;;;;;;;;;;26.20;35.25;100702.64;109052;1253;67260;-80
2023/07/04 12:32:53;;;;;;;;;;;;;;;26.24;35.27;100708.04;107644;1254;71058;-80
2023/07/04 12:35:23;;;;;;;;;;;;;;;26.05;34.50;100706.47;107555;1256;124530;-80